Time;durP1;ratioP1;P1;durP2;ratioP2;P2;SDS_P1;SDS_P2;PMS_P1;PMS_P2;Temp;Humidity;BMP_temperature;BMP_pressure;BME280_temperature;BME280_humidity;BME280_pressure;Samples;Min_cycle;Max_cycle;Signal;HPM_P1;HPM_P2
2022/05/28 00:01:38;;;;;;;12.55;2.13;;;11.00;99.90;;;;;;5058052;28;20518;-56
2022/05/28 00:04:08;;;;;;;11.63;2.00;;;11.00;99.90;;;;;;5027297;28;20053;-58
2022/05/28 00:06:35;;;;;;;12.20;2.10;;;11.00;99.90;;;;;;5061625;28;20657;-60
2022/05/28 00:09:01;;;;;;;9.73;1.90;;;10.90;99.90;;;;;;5041099;28;20102;-57
2022/05/28 00:11:36;;;;;;;16.27;1.80;;;10.80;99.90;;;;;;5065069;28;20394;-59
2022/05/28 00:14:03;;;;;;;17.13;2.00;;;10.80;99.90;;;;;;5040404;28;20051;-63
2022/05/28 00:16:29;;;;;;;11.95;1.98;;;10.70;99.90;;;;;;5058621;28;20045;-64
2022/05/28 00:18:55;;;;;;;13.02;2.00;;;10.70;99.90;;;;;;5057914;28;20082;-59
2022/05/28 00:21:22;;;;;;;12.38;1.92;;;10.70;99.90;;;;;;5062777;28;20065;-61
2022/05/28 00:23:49;;;;;;;11.63;1.70;;;10.60;99.90;;;;;;5063673;28;20044;-63
2022/05/28 00:26:17;;;;;;;11.10;1.80;;;10.50;99.90;;;;;;5063716;28;20106;-60
2022/05/28 00:28:43;;;;;;;11.23;2.38;;;10.40;99.90;;;;;;5057604;28;20045;-63
2022/05/28 00:31:09;;;;;;;6.55;1.80;;;10.40;99.90;;;;;;5056091;28;20110;-63
2022/05/28 00:33:35;;;;;;;13.90;2.25;;;10.30;99.90;;;;;;5061704;28;20040;-64
2022/05/28 00:36:04;;;;;;;11.90;1.42;;;10.30;99.90;;;;;;5060311;28;20544;-62
2022/05/28 00:38:30;;;;;;;10.27;1.90;;;10.30;99.90;;;;;;5061713;28;20404;-63
2022/05/28 00:40:58;;;;;;;8.63;1.58;;;10.30;99.90;;;;;;5062556;28;20045;-56
2022/05/28 00:43:25;;;;;;;10.63;2.00;;;10.30;99.90;;;;;;5061302;28;20037;-61
2022/05/28 00:46:13;;;;;;;12.85;2.15;;;10.20;99.90;;;;;;5058434;28;20048;-59
2022/05/28 00:48:44;;;;;;;10.00;1.65;;;10.20;99.90;;;;;;5061635;28;20044;-63
2022/05/28 00:51:27;;;;;;;9.77;1.83;;;10.20;99.90;;;;;;5060264;28;20051;-63
2022/05/28 00:53:56;;;;;;;20.08;2.30;;;10.10;99.90;;;;;;5060269;28;20052;-63
2022/05/28 00:56:24;;;;;;;9.82;2.20;;;10.10;99.90;;;;;;5059078;28;20617;-58
2022/05/28 00:58:51;;;;;;;7.90;1.60;;;10.10;99.90;;;;;;5061165;28;20040;-63
2022/05/28 01:01:25;;;;;;;15.95;2.42;;;10.10;99.90;;;;;;5057129;28;20047;-63
2022/05/28 01:04:00;;;;;;;9.88;2.08;;;10.10;99.90;;;;;;5054781;28;20040;-57
2022/05/28 01:06:49;;;;;;;13.70;2.33;;;10.00;99.90;;;;;;5057406;28;20040;-58
2022/05/28 01:09:44;;;;;;;16.48;2.63;;;10.00;99.90;;;;;;5058231;28;20036;-63
2022/05/28 01:12:13;;;;;;;16.73;2.17;;;10.00;99.90;;;;;;5078461;28;20079;-63
2022/05/28 01:15:13;;;;;;;10.20;1.70;;;10.00;99.90;;;;;;5060737;28;20044;-63
2022/05/28 01:17:50;;;;;;;12.30;2.25;;;10.00;99.90;;;;;;5056885;28;20076;-62
2022/05/28 01:20:23;;;;;;;14.65;2.03;;;10.10;99.90;;;;;;5056599;28;20072;-59
2022/05/28 01:22:59;;;;;;;14.48;3.03;;;10.10;99.90;;;;;;5058309;28;20095;-58
2022/05/28 01:25:53;;;;;;;11.55;2.00;;;10.10;99.90;;;;;;5059693;28;20506;-63
2022/05/28 01:28:24;;;;;;;16.63;2.53;;;10.10;99.90;;;;;;5058278;28;20983;-62
2022/05/28 01:30:52;;;;;;;12.02;1.98;;;10.10;99.90;;;;;;5053616;28;20122;-58
2022/05/28 01:33:19;;;;;;;14.20;2.53;;;10.10;99.90;;;;;;5061921;28;20493;-62
2022/05/28 01:35:46;;;;;;;9.02;1.92;;;10.10;99.90;;;;;;5052618;28;20558;-62
2022/05/28 01:38:15;;;;;;;11.35;2.30;;;10.20;99.90;;;;;;5057453;28;20146;-62
2022/05/28 01:40:42;;;;;;;8.90;2.10;;;10.20;99.90;;;;;;5054691;28;20044;-61
2022/05/28 01:43:12;;;;;;;18.75;2.72;;;10.20;99.90;;;;;;5055099;28;20048;-61
2022/05/28 01:45:41;;;;;;;11.88;2.53;;;10.30;99.90;;;;;;5054274;28;20037;-61
2022/05/28 01:48:08;;;;;;;16.50;2.72;;;10.30;99.90;;;;;;5057068;28;20451;-59
2022/05/28 01:50:42;;;;;;;18.73;3.03;;;10.30;99.90;;;;;;5058812;28;20048;-63
2022/05/28 01:53:11;;;;;;;12.55;2.58;;;10.30;99.90;;;;;;5057169;28;20132;-61
2022/05/28 01:55:40;;;;;;;13.07;2.50;;;10.30;99.90;;;;;;5052994;28;20132;-62
2022/05/28 01:58:06;;;;;;;15.65;2.60;;;10.20;99.90;;;;;;5056269;28;20083;-63
2022/05/28 02:00:31;;;;;;;15.45;3.70;;;10.20;99.90;;;;;;5054438;28;20052;-59
2022/05/28 02:02:59;;;;;;;16.45;2.65;;;10.20;99.90;;;;;;5045739;28;20045;-55
2022/05/28 02:05:25;;;;;;;16.17;2.63;;;10.20;99.90;;;;;;5045444;28;20044;-62
2022/05/28 02:07:51;;;;;;;9.90;2.42;;;10.20;99.90;;;;;;5057313;28;20041;-61
2022/05/28 02:10:20;;;;;;;9.27;2.17;;;10.10;99.90;;;;;;5054625;28;20050;-57
2022/05/28 02:13:01;;;;;;;18.67;2.65;;;10.10;99.90;;;;;;5059121;28;20106;-60
2022/05/28 02:16:04;;;;;;;16.52;3.22;;;10.10;99.90;;;;;;5057902;28;20581;-61
2022/05/28 02:18:40;;;;;;;17.83;3.17;;;10.10;99.90;;;;;;5015545;28;20059;-59
2022/05/28 02:21:07;;;;;;;16.30;3.08;;;10.00;99.90;;;;;;5054228;28;20064;-59
2022/05/28 02:24:05;;;;;;;9.40;2.13;;;10.00;99.90;;;;;;5057193;28;20094;-59
2022/05/28 02:26:39;;;;;;;19.25;2.63;;;10.00;99.90;;;;;;5056128;28;20127;-62
2022/05/28 02:29:06;;;;;;;24.58;2.90;;;10.00;99.90;;;;;;5056699;28;20474;-62
2022/05/28 02:31:33;;;;;;;15.20;3.13;;;10.00;99.90;;;;;;5055346;28;20066;-62
2022/05/28 02:34:00;;;;;;;15.73;2.80;;;10.00;99.90;;;;;;5051828;28;20101;-60
2022/05/28 02:36:27;;;;;;;15.73;2.97;;;10.00;99.90;;;;;;5056822;28;20898;-59
2022/05/28 02:38:53;;;;;;;14.77;2.60;;;10.00;99.90;;;;;;5061111;28;20045;-63
2022/05/28 02:41:20;;;;;;;16.42;3.25;;;10.00;99.90;;;;;;5048624;28;20044;-62
2022/05/28 02:43:46;;;;;;;16.20;3.28;;;10.10;99.90;;;;;;5055448;28;20045;-62
2022/05/28 02:46:12;;;;;;;13.77;2.28;;;10.10;99.90;;;;;;5052754;28;20044;-63
2022/05/28 02:48:39;;;;;;;17.17;2.55;;;10.20;99.90;;;;;;5052035;28;20041;-62
2022/05/28 02:51:10;;;;;;;15.27;2.05;;;10.20;99.90;;;;;;5054380;28;20488;-63
2022/05/28 02:53:37;;;;;;;16.15;2.63;;;10.20;99.90;;;;;;5051074;28;20055;-62
2022/05/28 02:56:04;;;;;;;12.32;2.90;;;10.20;99.90;;;;;;5057679;28;20040;-56
2022/05/28 02:58:30;;;;;;;18.00;3.45;;;10.20;99.90;;;;;;5029155;28;20040;-63
2022/05/28 03:00:56;;;;;;;12.55;2.75;;;10.20;99.90;;;;;;5054741;28;20057;-63
2022/05/28 03:03:22;;;;;;;18.75;3.05;;;10.20;99.90;;;;;;5053193;28;20042;-61
2022/05/28 03:05:50;;;;;;;18.45;2.65;;;10.10;99.90;;;;;;5054806;28;20041;-61
2022/05/28 03:08:16;;;;;;;21.08;3.67;;;10.10;99.90;;;;;;5053259;28;20041;-56
2022/05/28 03:10:42;;;;;;;20.77;3.53;;;10.10;99.90;;;;;;5056446;28;20048;-62
2022/05/28 03:13:09;;;;;;;18.42;3.10;;;10.10;99.90;;;;;;5057715;28;20048;-58
2022/05/28 03:15:35;;;;;;;17.27;3.47;;;10.10;99.90;;;;;;5052527;28;20041;-58
2022/05/28 03:18:01;;;;;;;11.65;2.75;;;10.10;99.90;;;;;;5060694;28;20056;-62
2022/05/28 03:20:28;;;;;;;17.70;3.10;;;10.10;99.90;;;;;;5058997;28;20043;-62
2022/05/28 03:22:54;;;;;;;18.23;3.47;;;10.10;99.90;;;;;;5058071;28;20048;-62
2022/05/28 03:25:20;;;;;;;18.88;2.97;;;10.10;99.90;;;;;;5058556;28;20487;-60
2022/05/28 03:27:45;;;;;;;16.35;3.00;;;10.00;99.90;;;;;;5059805;28;20045;-62
2022/05/28 03:30:12;;;;;;;17.10;3.50;;;10.00;99.90;;;;;;5056923;28;20043;-55
2022/05/28 03:32:38;;;;;;;14.55;3.13;;;10.00;99.90;;;;;;5062599;28;20057;-62
2022/05/28 03:35:04;;;;;;;11.90;2.90;;;9.90;99.90;;;;;;5048044;28;20330;-62
2022/05/28 03:37:31;;;;;;;15.32;3.00;;;10.00;99.90;;;;;;5060043;28;20240;-62
2022/05/28 03:39:57;;;;;;;15.48;2.78;;;10.00;99.90;;;;;;5056957;28;20047;-62
2022/05/28 03:42:23;;;;;;;19.27;3.60;;;10.00;99.90;;;;;;5062331;28;20040;-63
2022/05/28 03:44:49;;;;;;;15.05;3.13;;;10.00;99.90;;;;;;5057832;28;20572;-63
2022/05/28 03:47:14;;;;;;;20.58;3.78;;;10.00;99.90;;;;;;5038442;28;20044;-58
2022/05/28 03:49:42;;;;;;;13.57;2.97;;;10.00;99.90;;;;;;5059463;28;20051;-62
2022/05/28 03:52:09;;;;;;;12.45;2.55;;;10.00;99.90;;;;;;5061433;28;20419;-58
2022/05/28 03:54:35;;;;;;;14.00;2.78;;;10.00;99.90;;;;;;5057841;28;20501;-62
2022/05/28 03:57:06;;;;;;;22.17;2.60;;;10.00;99.90;;;;;;5060345;28;20048;-62
2022/05/28 03:59:34;;;;;;;13.98;2.40;;;10.00;99.90;;;;;;5049861;28;20047;-63
2022/05/28 04:02:01;;;;;;;13.23;3.25;;;10.00;99.90;;;;;;5060866;28;20106;-59
2022/05/28 04:04:27;;;;;;;13.75;2.55;;;9.90;99.90;;;;;;5029185;28;20552;-63
2022/05/28 04:06:53;;;;;;;15.52;2.80;;;9.90;99.90;;;;;;5059994;28;20569;-61
2022/05/28 04:09:19;;;;;;;9.93;2.50;;;9.90;99.90;;;;;;5063219;28;20052;-60
2022/05/28 04:11:44;;;;;;;12.85;3.13;;;9.90;99.90;;;;;;5060919;28;20569;-62
2022/05/28 04:14:10;;;;;;;14.90;3.15;;;9.90;99.90;;;;;;5062547;28;20048;-62
2022/05/28 04:16:36;;;;;;;17.95;3.03;;;9.90;99.90;;;;;;5057787;28;20119;-62
2022/05/28 04:19:03;;;;;;;16.10;3.13;;;10.00;99.90;;;;;;5061061;28;20056;-58
2022/05/28 04:21:29;;;;;;;19.17;3.15;;;10.00;99.90;;;;;;5062159;28;20489;-62
2022/05/28 04:23:55;;;;;;;15.05;2.88;;;10.10;99.90;;;;;;5061131;28;20040;-55
2022/05/28 04:26:21;;;;;;;17.55;2.97;;;10.10;99.90;;;;;;5060258;28;20055;-61
2022/05/28 04:28:46;;;;;;;13.00;2.75;;;10.20;99.90;;;;;;5055023;28;20091;-61
2022/05/28 04:31:12;;;;;;;14.77;2.90;;;10.20;99.90;;;;;;5059101;28;20056;-63
2022/05/28 04:33:38;;;;;;;16.67;2.50;;;10.30;99.90;;;;;;5057901;28;20372;-61
2022/05/28 04:36:04;;;;;;;14.93;3.53;;;10.30;99.90;;;;;;5061716;28;20083;-62
2022/05/28 04:38:30;;;;;;;14.23;2.72;;;10.40;99.90;;;;;;5059099;28;20342;-60
2022/05/28 04:40:56;;;;;;;13.20;3.88;;;10.50;99.90;;;;;;5060939;28;20044;-58
2022/05/28 04:43:21;;;;;;;13.18;3.22;;;10.60;99.90;;;;;;5061197;28;20044;-63
2022/05/28 04:45:47;;;;;;;20.20;3.10;;;10.60;99.90;;;;;;5060418;28;20119;-59
2022/05/28 04:48:14;;;;;;;16.55;3.83;;;10.60;99.90;;;;;;5057245;28;20045;-62
2022/05/28 04:50:40;;;;;;;16.60;3.40;;;10.70;99.90;;;;;;5058351;28;20224;-60
2022/05/28 04:53:06;;;;;;;17.25;3.35;;;10.70;99.90;;;;;;5057695;28;20049;-62
2022/05/28 04:55:32;;;;;;;21.45;3.60;;;10.70;99.90;;;;;;5062353;28;20051;-62
2022/05/28 04:57:58;;;;;;;26.45;3.45;;;10.70;99.90;;;;;;5059643;28;20032;-62
2022/05/28 05:00:25;;;;;;;16.70;3.35;;;10.70;99.90;;;;;;5058849;28;20040;-61
2022/05/28 05:02:51;;;;;;;26.80;3.78;;;10.80;99.90;;;;;;5054306;28;20594;-58
2022/05/28 05:05:18;;;;;;;16.25;3.63;;;10.90;99.90;;;;;;5060618;28;20115;-59
2022/05/28 05:07:44;;;;;;;17.17;3.08;;;11.00;99.90;;;;;;5057757;28;20050;-62
2022/05/28 05:10:10;;;;;;;14.57;2.95;;;11.10;99.90;;;;;;5059986;28;20044;-62
2022/05/28 05:12:36;;;;;;;14.57;2.70;;;11.20;99.90;;;;;;5060340;28;20037;-62
2022/05/28 05:15:03;;;;;;;18.02;2.75;;;11.30;99.90;;;;;;5058705;28;20036;-62
2022/05/28 05:17:28;;;;;;;14.65;3.33;;;11.40;99.90;;;;;;5059591;28;20041;-62
2022/05/28 05:19:54;;;;;;;15.93;4.13;;;11.40;99.90;;;;;;5057352;28;20052;-58
2022/05/28 05:22:20;;;;;;;23.90;7.30;;;11.50;99.90;;;;;;5056723;28;20048;-58
2022/05/28 05:24:46;;;;;;;21.75;7.63;;;11.50;99.90;;;;;;5058351;28;20192;-62
2022/05/28 05:27:13;;;;;;;16.35;3.90;;;11.50;99.90;;;;;;5059831;28;20041;-55
2022/05/28 05:29:39;;;;;;;18.23;4.07;;;11.50;99.90;;;;;;5059841;28;20052;-59
2022/05/28 05:32:06;;;;;;;16.80;3.80;;;11.60;99.90;;;;;;5054252;28;20056;-63
2022/05/28 05:34:32;;;;;;;15.23;3.75;;;11.60;99.90;;;;;;5053253;28;20130;-59
2022/05/28 05:36:58;;;;;;;16.30;4.20;;;11.60;99.90;;;;;;5049639;28;20526;-58
2022/05/28 05:39:24;;;;;;;17.95;3.78;;;11.60;99.90;;;;;;5055248;28;20049;-60
2022/05/28 05:41:50;;;;;;;12.43;3.17;;;11.60;99.90;;;;;;5060021;28;20299;-60
2022/05/28 05:44:16;;;;;;;17.90;4.45;;;11.50;99.90;;;;;;5057039;28;20044;-63
2022/05/28 05:46:43;;;;;;;24.70;4.00;;;11.50;99.90;;;;;;5060276;28;20521;-62
2022/05/28 05:49:11;;;;;;;15.20;3.10;;;11.60;99.90;;;;;;5056891;28;20133;-63
2022/05/28 05:51:43;;;;;;;18.08;3.28;;;11.60;99.90;;;;;;5055445;28;20055;-63
2022/05/28 05:54:09;;;;;;;19.95;3.45;;;11.60;99.90;;;;;;5057544;28;20579;-57
2022/05/28 05:56:35;;;;;;;15.57;3.22;;;11.60;99.90;;;;;;5054184;28;20143;-56
2022/05/28 05:59:01;;;;;;;18.80;4.03;;;11.60;99.90;;;;;;5056634;28;20131;-61
2022/05/28 06:01:27;;;;;;;20.27;4.05;;;11.60;99.90;;;;;;5058082;28;20110;-58
2022/05/28 06:03:53;;;;;;;22.42;3.90;;;11.60;99.90;;;;;;5059914;28;20044;-56
2022/05/28 06:06:19;;;;;;;22.40;4.03;;;11.60;99.90;;;;;;5058424;28;20080;-63
2022/05/28 06:08:46;;;;;;;24.33;4.65;;;11.60;99.90;;;;;;5060367;28;20045;-62
2022/05/28 06:11:12;;;;;;;24.27;6.20;;;11.60;99.90;;;;;;5060040;28;20040;-62
2022/05/28 06:13:38;;;;;;;24.08;5.47;;;11.70;99.90;;;;;;5056568;28;20051;-58
2022/05/28 06:16:04;;;;;;;16.15;3.50;;;11.80;99.90;;;;;;5058935;28;20036;-62
2022/05/28 06:18:31;;;;;;;16.13;3.70;;;11.90;99.90;;;;;;5053426;28;20056;-59
2022/05/28 06:20:59;;;;;;;14.77;2.67;;;11.80;99.90;;;;;;5051400;28;20052;-62
2022/05/28 06:23:25;;;;;;;15.45;2.90;;;11.70;99.90;;;;;;5049708;28;20048;-59
2022/05/28 06:25:51;;;;;;;12.82;2.97;;;11.60;99.90;;;;;;5060098;28;20506;-58
2022/05/28 06:28:16;;;;;;;13.27;2.65;;;11.50;99.90;;;;;;5019013;28;20040;-63
2022/05/28 06:30:44;;;;;;;12.18;3.28;;;11.50;99.90;;;;;;5028475;28;20061;-56
2022/05/28 06:33:11;;;;;;;14.10;3.67;;;11.50;99.90;;;;;;5062571;28;20506;-63
2022/05/28 06:35:38;;;;;;;12.02;2.72;;;11.60;99.90;;;;;;5061914;28;20115;-63
2022/05/28 06:38:04;;;;;;;12.70;2.28;;;11.80;99.90;;;;;;5061371;28;20438;-63
2022/05/28 06:40:31;;;;;;;15.23;3.03;;;12.00;99.90;;;;;;5059094;28;20128;-62
2022/05/28 06:42:57;;;;;;;12.48;2.92;;;12.10;99.90;;;;;;5062295;28;20044;-58
2022/05/28 06:45:24;;;;;;;23.25;3.15;;;12.20;99.90;;;;;;5061298;28;20052;-62
2022/05/28 06:47:50;;;;;;;14.18;3.25;;;12.20;99.90;;;;;;5061290;28;20768;-62
2022/05/28 06:53:03;;;;;;;23.23;3.67;;;12.20;99.90;;;;;;5058640;28;20040;-62
2022/05/28 06:55:29;;;;;;;21.25;3.72;;;12.20;99.90;;;;;;5054120;28;20623;-61
2022/05/28 06:57:55;;;;;;;23.15;3.97;;;12.20;99.90;;;;;;5062547;28;20043;-61
2022/05/28 07:00:21;;;;;;;17.10;3.80;;;12.20;99.90;;;;;;5060296;28;20049;-63
2022/05/28 07:02:47;;;;;;;18.67;2.88;;;12.20;99.90;;;;;;5061432;28;20052;-62
2022/05/28 07:05:14;;;;;;;17.30;3.10;;;12.30;99.90;;;;;;5057471;28;20490;-63
2022/05/28 07:07:41;;;;;;;16.23;3.17;;;12.40;99.90;;;;;;5060353;28;20063;-56
2022/05/28 07:10:08;;;;;;;26.08;3.85;;;12.40;99.90;;;;;;5063481;28;20041;-58
2022/05/28 07:12:34;;;;;;;16.75;3.42;;;12.50;99.90;;;;;;5059866;28;20111;-62
2022/05/28 07:14:59;;;;;;;13.88;3.15;;;12.70;99.90;;;;;;5058782;28;20041;-63
2022/05/28 07:17:25;;;;;;;19.17;3.90;;;12.70;99.90;;;;;;5059502;28;20083;-59
2022/05/28 07:19:51;;;;;;;18.73;3.30;;;12.70;99.90;;;;;;5062291;28;20049;-63
2022/05/28 07:22:17;;;;;;;15.68;2.78;;;12.80;99.90;;;;;;5057346;28;20036;-61
2022/05/28 07:24:43;;;;;;;19.17;3.50;;;12.70;99.90;;;;;;5059800;28;20079;-59
2022/05/28 07:27:11;;;;;;;21.88;4.53;;;12.90;99.90;;;;;;5059571;28;20159;-60
2022/05/28 07:29:38;;;;;;;17.95;3.55;;;13.00;99.90;;;;;;5062545;28;20087;-62
2022/05/28 07:32:04;;;;;;;21.02;3.70;;;13.30;99.90;;;;;;5058744;28;20137;-63
2022/05/28 07:34:30;;;;;;;17.27;4.03;;;13.50;99.90;;;;;;5059823;28;20044;-62
2022/05/28 07:36:56;;;;;;;18.50;3.25;;;13.50;99.90;;;;;;5057696;28;20036;-58
2022/05/28 07:39:22;;;;;;;21.17;3.70;;;13.50;99.90;;;;;;5062594;28;20051;-63
2022/05/28 07:41:48;;;;;;;20.75;3.63;;;13.50;99.90;;;;;;5060717;28;20071;-58
2022/05/28 07:44:14;;;;;;;25.33;3.53;;;13.50;99.90;;;;;;5060944;28;20131;-61
2022/05/28 07:46:40;;;;;;;19.58;3.03;;;13.40;99.90;;;;;;5061623;28;20045;-62
2022/05/28 07:49:06;;;;;;;17.85;3.38;;;13.40;99.90;;;;;;5057852;28;20044;-59
2022/05/28 07:51:34;;;;;;;20.40;3.58;;;13.30;99.90;;;;;;5053546;28;20119;-63
2022/05/28 07:54:00;;;;;;;17.00;3.55;;;13.30;99.90;;;;;;5059244;28;20060;-57
2022/05/28 07:56:26;;;;;;;17.67;3.35;;;13.40;99.90;;;;;;5060717;28;20052;-63
2022/05/28 07:58:54;;;;;;;25.38;3.05;;;13.40;99.90;;;;;;5060440;28;20131;-57
2022/05/28 08:01:23;;;;;;;20.88;4.18;;;13.40;99.90;;;;;;5062824;28;20113;-61
2022/05/28 08:03:50;;;;;;;18.67;3.53;;;13.30;99.90;;;;;;5061411;28;20105;-63
2022/05/28 08:06:16;;;;;;;18.13;3.40;;;13.30;99.90;;;;;;5062381;28;20048;-62
2022/05/28 08:08:42;;;;;;;23.33;3.35;;;13.20;99.90;;;;;;5059430;28;20127;-61
2022/05/28 08:11:09;;;;;;;21.95;3.13;;;13.20;99.90;;;;;;5063005;28;20048;-62
2022/05/28 08:13:36;;;;;;;18.80;3.30;;;13.30;99.90;;;;;;5065238;28;20513;-60
2022/05/28 08:16:02;;;;;;;20.27;3.38;;;13.30;99.90;;;;;;5064760;28;20045;-63
2022/05/28 08:18:28;;;;;;;17.90;3.05;;;13.40;99.90;;;;;;5061855;28;20045;-58
2022/05/28 08:23:40;;;;;;;17.27;2.95;;;13.50;99.70;;;;;;5057631;28;20098;-62
2022/05/28 08:26:08;;;;;;;12.38;2.47;;;13.50;98.90;;;;;;5050918;28;20564;-59
2022/05/28 08:28:36;;;;;;;17.85;3.63;;;13.60;98.70;;;;;;5065749;28;20443;-57
2022/05/28 08:31:02;;;;;;;11.70;2.65;;;13.80;98.80;;;;;;5064297;28;20173;-63
2022/05/28 08:33:28;;;;;;;12.35;2.95;;;14.00;97.70;;;;;;5061860;28;20033;-62
2022/05/28 08:35:55;;;;;;;22.77;3.05;;;14.10;97.60;;;;;;5062545;28;20047;-63
2022/05/28 08:38:23;;;;;;;11.25;2.75;;;14.30;97.70;;;;;;5062440;28;20052;-61
2022/05/28 08:40:58;;;;;;;19.67;3.53;;;14.50;97.80;;;;;;5060374;28;20052;-63
2022/05/28 08:43:29;;;;;;;14.77;2.90;;;14.70;97.90;;;;;;5056030;28;20045;-63
2022/05/28 08:45:55;;;;;;;16.17;3.00;;;14.90;97.90;;;;;;5058413;28;20048;-62
2022/05/28 08:48:34;;;;;;;19.45;3.97;;;14.90;97.30;;;;;;5054302;28;20504;-62
2022/05/28 08:51:16;;;;;;;16.20;3.03;;;14.80;96.80;;;;;;5058389;28;20756;-62
2022/05/28 08:53:53;;;;;;;23.48;3.15;;;14.50;96.70;;;;;;5061695;28;20510;-58
2022/05/28 08:56:24;;;;;;;20.70;3.63;;;14.30;96.90;;;;;;5061924;28;20084;-62
2022/05/28 08:59:00;;;;;;;19.00;3.97;;;14.10;97.50;;;;;;5059662;28;20078;-57
2022/05/28 09:01:30;;;;;;;18.50;4.07;;;14.10;98.10;;;;;;5059867;28;20040;-61
2022/05/28 09:04:00;;;;;;;12.98;3.47;;;14.00;98.90;;;;;;5063823;28;20510;-64
2022/05/28 09:06:40;;;;;;;18.70;2.72;;;13.90;99.40;;;;;;5059551;28;20079;-63
2022/05/28 09:09:09;;;;;;;17.00;3.17;;;13.80;98.50;;;;;;5062991;28;20450;-62
2022/05/28 09:11:51;;;;;;;22.17;3.55;;;13.60;98.10;;;;;;5064872;28;20044;-63
2022/05/28 09:14:22;;;;;;;25.02;3.00;;;13.50;98.20;;;;;;5058389;28;20551;-63
2022/05/28 09:16:50;;;;;;;18.25;2.97;;;13.50;98.80;;;;;;5059994;28;20076;-61
2022/05/28 09:19:19;;;;;;;21.63;3.72;;;13.50;99.30;;;;;;5060970;28;20049;-62
2022/05/28 09:21:46;;;;;;;15.45;2.70;;;13.70;99.50;;;;;;5055212;28;20514;-61
2022/05/28 09:24:27;;;;;;;17.98;3.03;;;13.80;99.50;;;;;;5053565;28;21304;-62
2022/05/28 09:27:04;;;;;;;23.48;4.50;;;13.80;99.10;;;;;;5063318;28;20060;-63
2022/05/28 09:29:48;;;;;;;17.00;3.20;;;13.90;99.20;;;;;;5062098;28;20587;-62
2022/05/28 09:32:44;;;;;;;18.00;3.45;;;14.10;99.00;;;;;;5062988;28;20087;-62
2022/05/28 09:35:32;;;;;;;21.58;2.97;;;14.50;98.70;;;;;;5060097;28;20052;-59
2022/05/28 09:38:25;;;;;;;20.77;2.90;;;14.90;98.10;;;;;;5053222;28;20051;-63
2022/05/28 09:41:12;;;;;;;19.58;3.30;;;14.90;97.40;;;;;;5061913;28;20044;-63
2022/05/28 09:44:16;;;;;;;20.65;3.03;;;14.70;97.80;;;;;;5063917;28;20067;-62
2022/05/28 09:46:43;;;;;;;16.90;3.33;;;14.60;98.00;;;;;;5058389;28;20350;-62
2022/05/28 09:49:21;;;;;;;14.20;3.08;;;14.60;97.70;;;;;;5058785;28;20045;-59
2022/05/28 09:51:57;;;;;;;10.80;2.22;;;14.70;97.60;;;;;;5060806;28;20048;-62
2022/05/28 09:54:27;;;;;;;15.00;2.20;;;15.10;97.10;;;;;;5064145;28;20040;-62
2022/05/28 09:57:27;;;;;;;11.50;2.60;;;15.20;94.80;;;;;;5061904;28;20516;-63
2022/05/28 10:00:08;;;;;;;12.40;2.30;;;15.10;94.10;;;;;;5058704;28;20080;-62
2022/05/28 10:02:40;;;;;;;13.88;2.40;;;15.00;92.60;;;;;;5057298;28;20044;-61
2022/05/28 10:05:14;;;;;;;16.42;2.75;;;15.00;93.80;;;;;;5058811;28;20079;-59
2022/05/28 10:07:46;;;;;;;14.85;2.78;;;15.00;94.60;;;;;;5061917;28;20048;-62
2022/05/28 10:10:22;;;;;;;18.95;2.88;;;15.00;95.60;;;;;;5061919;28;20053;-57
2022/05/28 10:12:49;;;;;;;16.80;3.22;;;15.10;95.50;;;;;;5061188;28;20045;-62
2022/05/28 10:15:22;;;;;;;10.93;2.45;;;15.10;94.50;;;;;;5063179;28;20372;-62
2022/05/28 10:17:59;;;;;;;14.45;2.50;;;15.00;94.00;;;;;;5058874;28;20043;-62
2022/05/28 10:20:26;;;;;;;13.35;2.88;;;15.10;93.30;;;;;;5062077;28;20070;-61
2022/05/28 10:22:55;;;;;;;9.43;2.20;;;15.10;93.10;;;;;;5061895;28;20636;-63
2022/05/28 10:25:24;;;;;;;7.70;1.83;;;15.00;91.90;;;;;;5050741;28;20060;-58
2022/05/28 10:27:52;;;;;;;7.70;1.92;;;14.80;90.50;;;;;;5062540;28;20049;-58
2022/05/28 10:30:31;;;;;;;14.98;1.80;;;14.90;91.00;;;;;;5050253;28;20051;-59
2022/05/28 10:33:01;;;;;;;11.82;2.00;;;15.20;90.40;;;;;;5057901;28;20036;-61
2022/05/28 10:35:30;;;;;;;8.07;1.88;;;15.40;88.90;;;;;;5060597;28;20074;-61
2022/05/28 10:38:12;;;;;;;10.20;2.10;;;15.60;87.80;;;;;;5061016;28;20051;-62
2022/05/28 10:41:12;;;;;;;8.70;1.50;;;15.60;85.00;;;;;;5061251;28;20136;-60
2022/05/28 10:43:39;;;;;;;8.93;2.03;;;15.60;82.90;;;;;;5057945;28;20045;-63
2022/05/28 10:46:13;;;;;;;17.05;2.53;;;15.70;86.20;;;;;;5060544;28;20152;-62
2022/05/28 10:48:59;;;;;;;10.18;2.20;;;15.80;85.60;;;;;;5066864;28;20041;-59
2022/05/28 10:51:31;;;;;;;7.30;1.95;;;15.70;86.00;;;;;;5058471;28;20053;-59
2022/05/28 10:54:15;;;;;;;9.45;2.03;;;15.60;84.50;;;;;;5063812;28;20129;-63
2022/05/28 10:56:55;;;;;;;17.02;2.63;;;15.50;83.20;;;;;;5059732;28;20098;-62
2022/05/28 10:59:30;;;;;;;23.98;3.40;;;15.20;84.30;;;;;;5060097;28;20510;-62
2022/05/28 11:02:15;;;;;;;14.30;2.58;;;15.30;87.70;;;;;;5059782;28;20051;-58
2022/05/28 11:05:05;;;;;;;14.43;2.53;;;15.50;90.30;;;;;;5060364;28;20083;-64
2022/05/28 11:07:51;;;;;;;9.60;2.30;;;15.50;89.60;;;;;;5061456;28;20116;-58
2022/05/28 11:10:36;;;;;;;13.48;2.72;;;15.60;89.10;;;;;;5062598;28;20056;-61
2022/05/28 11:13:26;;;;;;;9.85;2.28;;;15.90;89.80;;;;;;5057929;28;20490;-56
2022/05/28 11:16:38;;;;;;;11.60;2.45;;;16.30;86.90;;;;;;5059600;28;20052;-59
2022/05/28 11:19:22;;;;;;;14.32;2.20;;;16.70;86.90;;;;;;4993037;28;20046;-63
2022/05/28 11:22:11;;;;;;;13.32;2.10;;;16.80;83.70;;;;;;5057125;28;21155;-62
2022/05/28 11:25:05;;;;;;;11.90;2.28;;;16.40;80.40;;;;;;5059603;28;20479;-62
2022/05/28 11:27:49;;;;;;;13.10;2.90;;;16.30;82.20;;;;;;5055057;28;20132;-56
2022/05/28 11:30:26;;;;;;;13.07;2.42;;;16.20;82.80;;;;;;5059356;28;20494;-61
2022/05/28 11:33:02;;;;;;;9.00;2.15;;;16.00;82.50;;;;;;5053831;28;20048;-62
2022/05/28 11:35:33;;;;;;;13.65;2.30;;;15.70;82.80;;;;;;5044151;28;20045;-62
2022/05/28 11:38:17;;;;;;;11.98;2.72;;;15.50;85.40;;;;;;5053332;28;20052;-62
2022/05/28 11:40:56;;;;;;;10.70;2.30;;;15.30;86.50;;;;;;5056592;28;20506;-63
2022/05/28 11:43:30;;;;;;;17.13;2.58;;;15.20;89.80;;;;;;5066008;28;20558;-61
2022/05/28 11:46:18;;;;;;;13.38;2.70;;;15.10;91.30;;;;;;5040595;28;20198;-62
2022/05/28 11:52:21;;;;;;;13.23;2.78;;;15.50;93.00;;;;;;5054993;28;20589;-62
2022/05/28 11:54:54;;;;;;;14.18;2.50;;;15.90;93.70;;;;;;5058052;28;20044;-62
2022/05/28 11:57:29;;;;;;;14.35;2.50;;;16.10;92.70;;;;;;5059177;28;20510;-62
2022/05/28 11:59:57;;;;;;;10.75;2.30;;;16.10;91.00;;;;;;5062204;28;20398;-60
2022/05/28 12:02:28;;;;;;;12.75;2.20;;;16.20;90.70;;;;;;5055165;28;20124;-62
2022/05/28 12:04:54;;;;;;;19.23;2.72;;;16.50;89.40;;;;;;5053592;28;20086;-58
2022/05/28 12:07:38;;;;;;;20.80;2.80;;;16.80;87.10;;;;;;5059415;28;20460;-59
2022/05/28 12:10:11;;;;;;;13.93;2.97;;;17.00;83.50;;;;;;5052322;28;20447;-63
2022/05/28 12:12:53;;;;;;;9.18;2.30;;;17.00;81.30;;;;;;5056913;28;20059;-62
2022/05/28 12:15:24;;;;;;;15.80;2.85;;;16.90;80.10;;;;;;5046674;28;20790;-62
2022/05/28 12:18:14;;;;;;;17.70;2.67;;;16.70;81.30;;;;;;5059754;28;20650;-61
2022/05/28 12:20:59;;;;;;;20.27;2.85;;;16.80;83.50;;;;;;5061964;28;20040;-59
2022/05/28 12:23:41;;;;;;;14.30;2.72;;;17.20;82.00;;;;;;5059471;28;20032;-61
2022/05/28 12:29:48;;;;;;;14.38;3.10;;;17.90;82.00;;;;;;5019984;28;20045;-62
2022/05/28 12:32:14;;;;;;;14.90;2.90;;;17.80;79.30;;;;;;5019510;28;20517;-62
2022/05/28 12:34:58;;;;;;;13.90;2.67;;;18.00;80.40;;;;;;5043497;28;20470;-62
2022/05/28 12:37:37;;;;;;;16.77;2.30;;;18.00;78.80;;;;;;5059905;28;20044;-57
2022/05/28 12:40:12;;;;;;;14.32;2.53;;;17.60;76.00;;;;;;5061147;28;20053;-62
2022/05/28 12:42:38;;;;;;;14.65;2.22;;;17.50;77.50;;;;;;5062478;28;20056;-62
2022/05/28 12:45:30;;;;;;;12.82;2.63;;;17.70;78.70;;;;;;5064757;28;20088;-59
2022/05/28 12:48:27;;;;;;;12.85;1.85;;;17.90;78.50;;;;;;5063667;28;20102;-62
2022/05/28 12:51:14;;;;;;;15.20;2.42;;;18.00;76.00;;;;;;5060896;28;20088;-59
2022/05/28 12:53:58;;;;;;;10.00;2.38;;;18.20;77.20;;;;;;5065639;28;20041;-60
2022/05/28 12:56:44;;;;;;;14.15;2.88;;;18.00;74.50;;;;;;5061679;28;20032;-62
2022/05/28 12:59:12;;;;;;;11.65;2.20;;;18.00;76.20;;;;;;5063283;28;20095;-63
2022/05/28 13:01:40;;;;;;;11.38;1.70;;;18.10;75.80;;;;;;5064622;28;20139;-58
2022/05/28 13:04:16;;;;;;;11.93;2.30;;;18.30;74.70;;;;;;5058507;28;20088;-62
2022/05/28 13:06:48;;;;;;;10.48;2.03;;;18.50;74.40;;;;;;5065212;28;20498;-63
2022/05/28 13:09:14;;;;;;;11.52;2.30;;;18.70;73.10;;;;;;5064631;28;20048;-62
2022/05/28 13:11:50;;;;;;;13.95;2.50;;;18.90;72.20;;;;;;5059396;28;20070;-63